SASA

Martin Miguel De Guemes International Airport

Salta, Argentina
TAF SASA 230500Z 2306/2406 VRB03KT 8000 VCTS SCT020 FEW040CB TX28/2319Z TN18/2311Z BECMG 2312/2315 16005KT 9999 BKN020 OVC040 BECMG 2316/2319 16005KT 5000 TSRA SCT020 OVC035 FEW040CB BECMG 2400/2403 VRB03KT 3500 DZ BR BKN010 OVC030
Issued Valid From Valid To
Apr-23 @ 05:00 UTC
(4 hours ago)
Apr-23 @ 06:00 UTC
(3 hours ago)
Apr-24 @ 06:00 UTC
(in 21 hours)
Apr-23 @ 06:00 to Apr-23 @ 12:00
TAF SASA 230500Z 2306/2406 VRB03KT 8000 VCTS SCT020 FEW040CB TX28/2319Z TN18/2311Z
Wind Visibility Clouds Conditions
Variable at 3 knots 7,998 meters
  • Scattered at 2,000' AGL
  • Few at 4,000' AGL
  • Area Thunderstorm
Becoming Apr-23 @ 12:00 to Apr-23 @ 16:00
BECMG 2312/2315 16005KT 9999 BKN020 OVC040
Wind Visibility Clouds Conditions
160° at 5 knots 10,000+ meters
  • Broken at 2,000' AGL
  • Overcast at 4,000' AGL
  • Area Thunderstorm
Becoming Apr-23 @ 16:00 to Apr-24 @ 00:00
BECMG 2316/2319 16005KT 5000 TSRA SCT020 OVC035 FEW040CB
Wind Visibility Clouds Conditions
160° at 5 knots 5,005 meters
  • Scattered at 2,000' AGL
  • Overcast at 3,500' AGL
  • Few at 4,000' AGL
  • Thunderstorm
  • Rain
Becoming Apr-24 @ 00:00 to Apr-24 @ 06:00
BECMG 2400/2403 VRB03KT 3500 DZ BR BKN010 OVC030
Wind Visibility Clouds Conditions
Variable at 3 knots 3,492 meters
  • Broken at 1,000' AGL
  • Overcast at 3,000' AGL
  • Drizzle
  • Mist
TAF SASA 230500Z 2306/2406 VRB03KT 8000 VCTS SCT020 FEW040CB TX28/2319Z TN18/2311Z BECMG 2312/2315 16005KT 9999 BKN020 OVC040 BECMG 2316/2319 16005KT 5000 TSRA SCT020 OVC035 FEW040CB BECMG 2400/2403 VRB03KT 3500 DZ BR BKN010 OVC030
Issued Apr-23 @ 05:00 UTC
(4 hours ago)
Valid From Apr-23 @ 06:00 UTC
(3 hours ago)
Valid To Apr-24 @ 06:00 UTC
(in 21 hours)
Apr-23 @ 06:00 - Apr-23 @ 12:00
Wind Visibility
Variable at 3 knots 7,998 meters
Clouds
  • Scattered at 2,000' AGL
  • Few at 4,000' AGL
Conditions
  • Area Thunderstorm
Becoming Apr-23 @ 12:00 - Apr-23 @ 16:00
Wind Visibility
160° at 5 knots 10,000+ meters
Clouds
  • Broken at 2,000' AGL
  • Overcast at 4,000' AGL
Conditions
  • Area Thunderstorm
Becoming Apr-23 @ 16:00 - Apr-24 @ 00:00
Wind Visibility
160° at 5 knots 5,005 meters
Clouds
  • Scattered at 2,000' AGL
  • Overcast at 3,500' AGL
  • Few at 4,000' AGL
Conditions
  • Thunderstorm
  • Rain
Becoming Apr-24 @ 00:00 - Apr-24 @ 06:00
Wind Visibility
Variable at 3 knots 3,492 meters
Clouds
  • Broken at 1,000' AGL
  • Overcast at 3,000' AGL
Conditions
  • Drizzle
  • Mist